Seaview, United Kingdom
Current Conditions -  °F | °C
As of 9:50 PM on Tuesday 25 Nov 2014 (Local Time) from EGHI Reporting Station
Moderate Rain Moderate Rain  
Wind Chill: 41°   Ceiling: 1400
Heat Index: 45°   Visibility: 2.1mi
Dew Point: 43°   Wind: 7mph
Humidity: 93%   Direction: 10°N
Pressure: 30"   Gusts: NA
Location:  50.72°N, 1.11°W
Report Text: EGHI 252150Z 01006KT 3500 RA SCT008 BKN014 07/06 Q1016
Loading
Personal Weather Stations






























Interactive Weather Map New forecast layout! Learn more

10-Day Weather Forecast

Advertisements
Track Severe Weather on mobile